createdAt,value
2022-09-24T00:01:32.650Z,13.65
2022-09-24T00:04:04.850Z,13.48
2022-09-24T00:06:36.059Z,12.52
2022-09-24T00:09:02.762Z,11.93
2022-09-24T00:11:32.164Z,13.75
2022-09-24T00:14:00.098Z,13.32
2022-09-24T00:16:31.318Z,15.10
2022-09-24T00:18:59.504Z,13.05
2022-09-24T00:21:29.354Z,13.80
2022-09-24T00:23:58.701Z,10.90
2022-09-24T00:26:44.310Z,14.27
2022-09-24T00:29:13.981Z,13.75
2022-09-24T00:31:41.012Z,12.65
2022-09-24T00:34:08.277Z,13.65
2022-09-24T00:36:35.112Z,11.85
2022-09-24T00:39:01.912Z,19.58
2022-09-24T00:41:31.807Z,12.77
2022-09-24T00:43:59.328Z,12.38
2022-09-24T00:46:36.938Z,14.90
2022-09-24T00:49:16.485Z,12.18
2022-09-24T00:51:46.683Z,14.40
2022-09-24T00:54:18.532Z,12.35
2022-09-24T00:56:46.537Z,13.50
2022-09-24T00:59:19.538Z,14.63
2022-09-24T01:01:46.996Z,14.25
2022-09-24T01:04:16.145Z,16.10
2022-09-24T01:06:43.227Z,13.60
2022-09-24T01:09:10.259Z,13.50
2022-09-24T01:12:15.741Z,14.90
2022-09-24T01:14:54.536Z,12.13
2022-09-24T01:17:31.321Z,12.55
2022-09-24T01:20:33.756Z,13.82
2022-09-24T01:23:21.207Z,12.13
2022-09-24T01:26:19.006Z,12.68
2022-09-24T01:29:43.391Z,14.88
2022-09-24T01:32:32.574Z,13.25
2022-09-24T01:35:57.966Z,14.73
2022-09-24T01:38:34.733Z,13.80
2022-09-24T01:41:03.464Z,14.15
2022-09-24T01:43:30.852Z,11.93
2022-09-24T01:46:01.156Z,14.73
2022-09-24T01:48:28.997Z,10.90
2022-09-24T01:51:04.574Z,12.80
2022-09-24T01:53:37.119Z,12.95
2022-09-24T01:56:30.523Z,12.48
2022-09-24T01:59:09.349Z,12.20
2022-09-24T02:01:45.812Z,13.15
2022-09-24T02:04:16.732Z,13.63
2022-09-24T02:06:50.997Z,11.50
2022-09-24T02:09:38.081Z,12.77
2022-09-24T02:12:17.917Z,14.15
2022-09-24T02:14:57.066Z,14.40
2022-09-24T02:17:27.537Z,12.77
2022-09-24T02:19:56.412Z,11.40
2022-09-24T02:22:24.272Z,12.00
2022-09-24T02:24:54.765Z,12.70
2022-09-24T02:27:21.934Z,13.20
2022-09-24T02:29:48.667Z,13.52
2022-09-24T02:32:19.495Z,12.82
2022-09-24T02:34:51.661Z,16.67
2022-09-24T02:37:20.206Z,14.32
2022-09-24T02:39:46.916Z,11.82
2022-09-24T02:42:15.537Z,12.45
2022-09-24T02:44:42.145Z,13.02
2022-09-24T02:47:08.787Z,12.65
2022-09-24T02:49:35.517Z,13.75
2022-09-24T02:52:02.569Z,15.07
2022-09-24T02:54:29.143Z,13.20
2022-09-24T02:56:55.807Z,13.00
2022-09-24T02:59:22.607Z,14.18
2022-09-24T03:01:50.293Z,12.85
2022-09-24T03:04:17.153Z,14.48
2022-09-24T03:06:43.905Z,16.58
2022-09-24T03:09:12.826Z,14.50
2022-09-24T03:11:39.980Z,12.60
2022-09-24T03:14:06.780Z,16.10
2022-09-24T03:16:33.790Z,16.05
2022-09-24T03:19:00.547Z,14.68
2022-09-24T03:21:27.313Z,14.95
2022-09-24T03:23:53.964Z,16.75
2022-09-24T03:26:20.929Z,16.25
2022-09-24T03:28:47.543Z,14.75
2022-09-24T03:31:14.666Z,12.13
2022-09-24T03:33:46.877Z,13.35
2022-09-24T03:36:24.678Z,14.65
2022-09-24T03:38:57.698Z,15.05
2022-09-24T03:41:26.779Z,15.73
2022-09-24T03:43:53.732Z,16.85
2022-09-24T03:46:20.654Z,16.00
2022-09-24T03:48:47.651Z,13.27
2022-09-24T03:51:19.087Z,13.73
2022-09-24T03:53:46.759Z,15.30
2022-09-24T03:56:13.446Z,12.43
2022-09-24T03:58:40.605Z,12.63
2022-09-24T04:01:08.886Z,16.25
2022-09-24T04:03:37.833Z,18.05
2022-09-24T04:06:05.212Z,16.38
2022-09-24T04:08:32.261Z,14.07
2022-09-24T04:10:59.274Z,19.15
2022-09-24T04:13:26.533Z,16.13
2022-09-24T04:15:53.772Z,17.27
2022-09-24T04:18:20.978Z,17.08
2022-09-24T04:20:50.436Z,13.80
2022-09-24T04:23:17.146Z,16.13
2022-09-24T04:25:44.324Z,13.88
2022-09-24T04:28:11.968Z,17.92
2022-09-24T04:30:38.893Z,17.15
2022-09-24T04:33:06.564Z,15.38
2022-09-24T04:35:35.384Z,14.13
2022-09-24T04:38:05.551Z,16.15
2022-09-24T04:40:32.610Z,14.82
2022-09-24T04:42:59.476Z,14.93
2022-09-24T04:45:26.801Z,16.05
2022-09-24T04:47:57.208Z,13.23
2022-09-24T04:50:25.870Z,14.77
2022-09-24T04:52:52.944Z,18.27
2022-09-24T04:55:20.758Z,14.77
2022-09-24T04:57:47.754Z,15.85
2022-09-24T05:00:17.364Z,15.73
2022-09-24T05:02:44.869Z,16.92
2022-09-24T05:05:12.643Z,16.75
2022-09-24T05:07:39.944Z,13.90
2022-09-24T05:10:07.058Z,16.83
2022-09-24T05:12:36.194Z,17.65
2022-09-24T05:15:03.957Z,17.95
2022-09-24T05:17:30.636Z,17.77
2022-09-24T05:19:59.314Z,14.85
2022-09-24T05:22:30.032Z,16.02
2022-09-24T05:24:56.924Z,16.48
2022-09-24T05:27:24.124Z,17.65
2022-09-24T05:29:50.737Z,16.35
2022-09-24T05:32:19.825Z,18.33
2022-09-24T05:34:47.134Z,18.00
2022-09-24T05:37:14.770Z,16.60
2022-09-24T05:39:41.839Z,16.58
2022-09-24T05:42:13.764Z,24.33
2022-09-24T05:44:41.022Z,19.13
2022-09-24T05:47:08.497Z,25.15
2022-09-24T05:49:35.251Z,20.73
2022-09-24T05:52:02.116Z,23.77
2022-09-24T05:54:28.849Z,17.60
2022-09-24T05:56:55.431Z,23.17
2022-09-24T05:59:22.102Z,21.65
2022-09-24T06:01:49.246Z,17.60
2022-09-24T06:04:16.254Z,25.67
2022-09-24T06:06:43.507Z,19.52
2022-09-24T06:09:10.353Z,21.20
2022-09-24T06:11:40.468Z,18.60
2022-09-24T06:14:08.989Z,22.50
2022-09-24T06:16:36.467Z,22.15
2022-09-24T06:19:03.393Z,20.63
2022-09-24T06:21:30.136Z,17.05
2022-09-24T06:23:56.766Z,21.42
2022-09-24T06:26:26.008Z,15.45
2022-09-24T06:28:52.683Z,20.13
2022-09-24T06:31:19.379Z,20.02
2022-09-24T06:33:46.270Z,16.58
2022-09-24T06:36:12.910Z,18.75
2022-09-24T06:38:40.528Z,16.65
2022-09-24T06:41:07.356Z,23.13
2022-09-24T06:43:34.911Z,20.55
2022-09-24T06:46:02.023Z,13.43
2022-09-24T06:48:29.399Z,17.65
2022-09-24T06:50:56.464Z,15.50
2022-09-24T06:53:23.563Z,18.25
2022-09-24T06:55:50.337Z,20.50
2022-09-24T06:58:23.532Z,18.30
2022-09-24T07:00:55.227Z,14.90
2022-09-24T07:03:22.341Z,16.13
2022-09-24T07:05:49.328Z,16.77
2022-09-24T07:08:16.978Z,20.00
2022-09-24T07:10:45.239Z,16.63
2022-09-24T07:13:13.389Z,15.80
2022-09-24T07:15:41.568Z,16.90
2022-09-24T07:18:08.818Z,14.85
2022-09-24T07:20:36.937Z,14.05
2022-09-24T07:23:08.393Z,18.50
2022-09-24T07:25:36.205Z,20.67
2022-09-24T07:28:05.922Z,15.55
2022-09-24T07:30:33.769Z,14.02
2022-09-24T07:33:00.757Z,15.20
2022-09-24T07:35:28.946Z,18.17
2022-09-24T07:38:12.248Z,16.85
2022-09-24T07:40:39.249Z,16.92
2022-09-24T07:43:13.621Z,15.60
2022-09-24T07:45:41.518Z,12.30
2022-09-24T07:48:10.244Z,14.23
2022-09-24T07:50:40.334Z,12.88
2022-09-24T07:53:07.392Z,14.65
2022-09-24T07:55:39.313Z,18.13
2022-09-24T07:58:08.213Z,12.35
2022-09-24T08:00:35.211Z,15.52
2022-09-24T08:03:03.034Z,13.70
2022-09-24T08:05:29.808Z,17.15
2022-09-24T08:07:57.649Z,14.88
2022-09-24T08:10:26.338Z,14.30
2022-09-24T08:12:53.801Z,13.52
2022-09-24T08:15:22.534Z,18.52
2022-09-24T08:17:49.528Z,16.80
2022-09-24T08:20:16.268Z,14.07
2022-09-24T08:22:42.905Z,18.92
2022-09-24T08:25:09.757Z,16.92
2022-09-24T08:27:37.385Z,13.73
2022-09-24T08:30:05.399Z,16.10
2022-09-24T08:32:32.151Z,19.13
2022-09-24T08:34:58.980Z,18.48
2022-09-24T08:37:29.247Z,15.05
2022-09-24T08:39:56.057Z,13.07
2022-09-24T08:42:22.836Z,18.40
2022-09-24T08:45:09.313Z,21.55
2022-09-24T08:47:45.718Z,20.92
2022-09-24T08:50:31.268Z,23.58
2022-09-24T08:53:24.286Z,20.85
2022-09-24T08:55:55.173Z,19.08
2022-09-24T08:58:54.092Z,16.88
2022-09-24T09:01:26.856Z,17.85
2022-09-24T09:04:24.969Z,17.13
2022-09-24T09:07:12.557Z,12.93
2022-09-24T09:10:08.289Z,12.02
2022-09-24T09:12:48.033Z,16.38
2022-09-24T09:15:28.377Z,15.93
2022-09-24T09:18:14.090Z,15.90
2022-09-24T09:20:45.291Z,11.18
2022-09-24T09:23:19.012Z,14.25
2022-09-24T09:25:52.942Z,15.38
2022-09-24T09:28:20.478Z,15.38
2022-09-24T09:31:08.513Z,19.15
2022-09-24T09:34:10.005Z,17.00
2022-09-24T09:37:23.337Z,13.80
2022-09-24T09:40:03.010Z,13.85
2022-09-24T09:42:40.242Z,13.07
2022-09-24T09:45:29.125Z,12.27
2022-09-24T09:47:57.303Z,13.45
2022-09-24T09:50:28.680Z,12.18
2022-09-24T09:52:55.537Z,12.25
2022-09-24T09:55:31.074Z,12.48
2022-09-24T09:58:15.889Z,14.75
2022-09-24T10:00:43.833Z,15.50
2022-09-24T10:03:29.301Z,13.35
2022-09-24T10:06:01.894Z,14.85
2022-09-24T10:08:30.026Z,14.32
2022-09-24T10:10:58.853Z,15.27
2022-09-24T10:13:26.749Z,12.65
2022-09-24T10:15:58.590Z,11.95
2022-09-24T10:18:34.421Z,15.68
2022-09-24T10:21:04.414Z,14.50
2022-09-24T10:23:41.349Z,15.18
2022-09-24T10:26:09.075Z,21.17
2022-09-24T10:29:06.477Z,13.77
2022-09-24T10:31:37.223Z,14.50
2022-09-24T10:34:17.958Z,14.40
2022-09-24T10:37:08.778Z,11.93
2022-09-24T10:39:37.726Z,12.13
2022-09-24T10:42:05.399Z,12.15
2022-09-24T10:44:37.008Z,13.07
2022-09-24T10:47:12.130Z,11.90
2022-09-24T10:50:07.254Z,11.45
2022-09-24T10:53:12.175Z,10.50
2022-09-24T10:56:20.268Z,12.27
2022-09-24T10:58:55.156Z,13.18
2022-09-24T11:01:40.654Z,12.20
2022-09-24T11:04:10.403Z,10.27
2022-09-24T11:06:44.610Z,10.18
2022-09-24T11:09:32.619Z,9.57
2022-09-24T11:12:26.438Z,9.63
2022-09-24T11:15:08.239Z,9.70
2022-09-24T11:18:29.003Z,10.32
2022-09-24T11:21:16.240Z,10.48
2022-09-24T11:24:01.831Z,10.77
2022-09-24T11:26:43.723Z,11.23
2022-09-24T11:29:25.716Z,12.55
2022-09-24T11:32:23.567Z,11.57
2022-09-24T11:35:04.321Z,15.23
2022-09-24T11:37:30.905Z,10.18
2022-09-24T11:40:09.358Z,11.15
2022-09-24T11:42:48.550Z,12.25
2022-09-24T11:45:18.584Z,11.02
2022-09-24T11:47:54.161Z,13.50
2022-09-24T11:50:26.837Z,11.52
2022-09-24T11:53:09.104Z,11.23
2022-09-24T11:55:54.205Z,8.05
2022-09-24T11:58:27.062Z,9.73
2022-09-24T12:00:59.933Z,11.48
2022-09-24T12:03:58.267Z,14.18
2022-09-24T12:06:31.173Z,12.18
2022-09-24T12:09:04.148Z,11.85
2022-09-24T12:11:36.898Z,13.32
2022-09-24T12:14:15.035Z,12.23
2022-09-24T12:16:44.382Z,11.73
2022-09-24T12:19:20.216Z,12.30
2022-09-24T12:21:49.342Z,12.88
2022-09-24T12:24:43.787Z,14.40
2022-09-24T12:27:28.241Z,12.23
2022-09-24T12:30:53.085Z,10.77
2022-09-24T12:33:44.782Z,13.00
2022-09-24T12:36:17.275Z,12.02
2022-09-24T12:38:49.126Z,11.85
2022-09-24T12:41:54.606Z,10.30
2022-09-24T12:44:43.102Z,13.25
2022-09-24T12:47:27.800Z,12.65
2022-09-24T12:50:01.127Z,11.73
2022-09-24T12:52:39.104Z,12.55
2022-09-24T12:55:18.203Z,10.98
2022-09-24T12:58:01.403Z,10.85
2022-09-24T13:00:47.050Z,11.57
2022-09-24T13:03:35.439Z,12.65
2022-09-24T13:06:03.265Z,12.07
2022-09-24T13:08:40.674Z,11.20
2022-09-24T13:11:29.297Z,11.85
2022-09-24T13:14:22.316Z,9.25
2022-09-24T13:16:52.927Z,10.18
2022-09-24T13:19:31.087Z,10.07
2022-09-24T13:22:02.634Z,7.43
2022-09-24T13:24:46.494Z,9.20
2022-09-24T13:27:31.270Z,8.88
2022-09-24T13:30:19.264Z,9.77
2022-09-24T13:33:09.710Z,11.27
2022-09-24T13:35:58.309Z,12.52
2022-09-24T13:38:29.741Z,9.65
2022-09-24T13:41:02.406Z,9.00
2022-09-24T13:43:49.720Z,10.38
2022-09-24T13:46:19.541Z,9.98
2022-09-24T13:48:52.427Z,7.07
2022-09-24T13:51:24.800Z,7.32
2022-09-24T13:54:04.038Z,7.25
2022-09-24T13:56:31.157Z,8.70
2022-09-24T13:59:10.437Z,8.70
2022-09-24T14:01:41.632Z,8.75
2022-09-24T14:04:18.165Z,9.73
2022-09-24T14:06:57.740Z,8.60
2022-09-24T14:09:33.018Z,6.00
2022-09-24T14:12:02.380Z,9.18
2022-09-24T14:14:34.559Z,9.02
2022-09-24T14:17:09.802Z,9.98
2022-09-24T14:19:36.604Z,8.63
2022-09-24T14:22:05.661Z,5.55
2022-09-24T14:25:06.099Z,8.88
2022-09-24T14:27:34.317Z,9.02
2022-09-24T14:30:05.480Z,9.52
2022-09-24T14:32:38.306Z,7.35
2022-09-24T14:35:30.329Z,10.10
2022-09-24T14:38:25.583Z,9.80
2022-09-24T14:41:21.287Z,12.50
2022-09-24T14:43:55.307Z,8.95
2022-09-24T14:46:24.971Z,9.70
2022-09-24T14:48:52.367Z,9.45
2022-09-24T14:51:27.765Z,9.35
2022-09-24T14:54:03.391Z,9.70
2022-09-24T14:56:31.621Z,7.63
2022-09-24T14:58:59.465Z,8.32
2022-09-24T15:01:33.737Z,7.65
2022-09-24T15:04:07.720Z,10.98
2022-09-24T15:06:37.837Z,12.50
2022-09-24T15:09:15.755Z,12.02
2022-09-24T15:11:43.768Z,11.15
2022-09-24T15:14:16.244Z,11.27
2022-09-24T15:16:44.430Z,9.68
2022-09-24T15:19:21.911Z,11.48
2022-09-24T15:21:50.628Z,11.55
2022-09-24T15:24:19.339Z,12.23
2022-09-24T15:27:00.085Z,15.10
2022-09-24T15:29:26.936Z,15.68
2022-09-24T15:31:56.408Z,14.30
2022-09-24T15:34:23.453Z,15.25
2022-09-24T15:37:01.429Z,14.85
2022-09-24T15:39:28.686Z,14.35
2022-09-24T15:41:55.339Z,16.45
2022-09-24T15:44:27.293Z,18.02
2022-09-24T15:46:56.737Z,19.35
2022-09-24T15:49:23.498Z,16.98
2022-09-24T15:51:56.950Z,18.13
2022-09-24T15:54:24.792Z,15.27
2022-09-24T15:56:54.535Z,14.57
2022-09-24T15:59:23.284Z,17.92
2022-09-24T16:01:54.236Z,17.10
2022-09-24T16:04:21.021Z,8.43
2022-09-24T16:06:47.651Z,10.43
2022-09-24T16:09:14.296Z,18.30
2022-09-24T16:11:41.116Z,19.73
2022-09-24T16:14:08.269Z,16.85
2022-09-24T16:16:34.958Z,16.48
2022-09-24T16:19:01.745Z,18.83
2022-09-24T16:21:28.450Z,19.55
2022-09-24T16:23:56.482Z,18.83
2022-09-24T16:26:23.713Z,18.65
2022-09-24T16:28:51.585Z,20.77
2022-09-24T16:31:21.428Z,21.00
2022-09-24T16:33:48.554Z,19.25
2022-09-24T16:36:15.609Z,21.08
2022-09-24T16:38:42.274Z,23.35
2022-09-24T16:41:10.460Z,20.55
2022-09-24T16:43:37.141Z,24.85
2022-09-24T16:46:09.183Z,20.40
2022-09-24T16:48:36.364Z,22.85
2022-09-24T16:51:08.793Z,21.35
2022-09-24T16:53:36.357Z,26.02
2022-09-24T16:56:14.694Z,21.73
2022-09-24T16:58:42.862Z,20.40
2022-09-24T17:01:14.930Z,23.85
2022-09-24T17:03:42.103Z,21.20
2022-09-24T17:06:16.791Z,24.52
2022-09-24T17:09:02.006Z,24.85
2022-09-24T17:11:28.632Z,20.83
2022-09-24T17:13:56.246Z,24.98
2022-09-24T17:16:24.972Z,23.25
2022-09-24T17:18:54.381Z,22.35
2022-09-24T17:21:22.650Z,23.15
2022-09-24T17:23:49.676Z,23.40
2022-09-24T17:26:19.722Z,22.80
2022-09-24T17:28:47.914Z,22.80
2022-09-24T17:31:17.668Z,19.30
2022-09-24T17:33:44.774Z,20.40
2022-09-24T17:36:13.975Z,21.13
2022-09-24T17:38:40.693Z,19.73
2022-09-24T17:41:10.316Z,23.67
2022-09-24T17:43:37.510Z,18.70
2022-09-24T17:46:15.717Z,21.10
2022-09-24T17:48:45.192Z,21.95
2022-09-24T17:51:19.083Z,25.90
2022-09-24T17:53:46.721Z,21.70
2022-09-24T17:56:14.422Z,21.17
2022-09-24T17:58:43.870Z,15.57
2022-09-24T18:01:17.476Z,17.33
2022-09-24T18:03:45.362Z,18.77
2022-09-24T18:06:14.676Z,18.08
2022-09-24T18:08:45.555Z,19.15
2022-09-24T18:11:14.961Z,20.50
2022-09-24T18:13:41.827Z,19.38
2022-09-24T18:16:13.062Z,18.30
2022-09-24T18:18:39.986Z,23.25
2022-09-24T18:21:08.987Z,21.50
2022-09-24T18:23:36.315Z,17.08
2022-09-24T18:26:11.828Z,13.55
2022-09-24T18:29:03.921Z,16.00
2022-09-24T18:31:31.716Z,14.90
2022-09-24T18:34:04.990Z,20.95
2022-09-24T18:36:34.261Z,15.95
2022-09-24T18:39:01.997Z,22.50
2022-09-24T18:41:29.795Z,19.35
2022-09-24T18:43:59.469Z,22.77
2022-09-24T18:46:28.821Z,20.48
2022-09-24T18:48:57.294Z,22.08
2022-09-24T18:51:29.453Z,21.23
2022-09-24T18:53:58.774Z,19.42
2022-09-24T18:56:25.802Z,19.02
2022-09-24T18:59:09.989Z,18.85
2022-09-24T19:01:38.026Z,18.73
2022-09-24T19:04:06.375Z,19.90
2022-09-24T19:06:35.530Z,17.40
2022-09-24T19:09:04.616Z,13.95
2022-09-24T19:11:31.605Z,12.57
2022-09-24T19:13:58.782Z,12.15
2022-09-24T19:16:25.735Z,14.23
2022-09-24T19:18:53.645Z,13.63
2022-09-24T19:21:23.038Z,13.48
2022-09-24T19:23:52.438Z,12.90
2022-09-24T19:26:21.814Z,18.05
2022-09-24T19:28:52.678Z,14.80
2022-09-24T19:31:24.202Z,14.52
2022-09-24T19:33:52.229Z,15.68
2022-09-24T19:36:19.447Z,14.25
2022-09-24T19:38:47.160Z,13.57
2022-09-24T19:41:21.218Z,14.48
2022-09-24T19:43:51.960Z,14.52
2022-09-24T19:46:20.677Z,14.13
2022-09-24T19:48:49.099Z,14.68
2022-09-24T19:51:21.255Z,13.77
2022-09-24T19:53:52.884Z,15.98
2022-09-24T19:56:24.541Z,12.88
2022-09-24T19:58:56.421Z,12.65
2022-09-24T20:01:30.983Z,14.35
2022-09-24T20:03:59.399Z,15.60
2022-09-24T20:06:28.724Z,12.40
2022-09-24T20:08:55.683Z,14.20
2022-09-24T20:11:24.636Z,14.98
2022-09-24T20:13:53.218Z,13.93
2022-09-24T20:16:22.300Z,14.52
2022-09-24T20:18:50.882Z,16.85
2022-09-24T20:21:18.820Z,11.30
2022-09-24T20:23:47.015Z,13.50
2022-09-24T20:26:33.365Z,11.15
2022-09-24T20:29:01.407Z,10.13
2022-09-24T20:31:28.521Z,13.80
2022-09-24T20:33:55.192Z,12.00
2022-09-24T20:36:24.455Z,10.25
2022-09-24T20:38:52.037Z,13.30
2022-09-24T20:41:23.659Z,13.32
2022-09-24T20:43:51.482Z,16.20
2022-09-24T20:46:24.526Z,13.57
2022-09-24T20:48:52.372Z,19.10
2022-09-24T20:51:21.166Z,11.48
2022-09-24T20:53:48.979Z,9.38
2022-09-24T20:56:17.000Z,7.93
2022-09-24T20:58:43.744Z,8.85
2022-09-24T21:01:11.153Z,8.85
2022-09-24T21:03:45.129Z,10.02
2022-09-24T21:06:13.104Z,7.65
2022-09-24T21:08:41.878Z,8.05
2022-09-24T21:11:16.031Z,7.35
2022-09-24T21:13:45.573Z,6.50
2022-09-24T21:16:12.415Z,8.23
2022-09-24T21:18:44.862Z,7.95
2022-09-24T21:21:16.939Z,7.00
2022-09-24T21:23:48.962Z,6.30
2022-09-24T21:26:20.783Z,7.07
2022-09-24T21:28:50.069Z,7.00
2022-09-24T21:31:21.373Z,8.90
2022-09-24T21:33:52.407Z,7.53
2022-09-24T21:36:20.769Z,8.60
2022-09-24T21:38:55.453Z,9.15
2022-09-24T21:41:24.270Z,8.13
2022-09-24T21:43:52.240Z,7.22
2022-09-24T21:46:19.221Z,10.70
2022-09-24T21:48:45.863Z,7.93
2022-09-24T21:51:13.997Z,7.88
2022-09-24T21:53:40.894Z,9.75
2022-09-24T21:56:07.611Z,7.75
2022-09-24T21:58:34.568Z,8.55
2022-09-24T22:01:04.785Z,13.00
2022-09-24T22:03:32.104Z,13.95
2022-09-24T22:06:03.243Z,9.82
2022-09-24T22:08:31.695Z,8.35
2022-09-24T22:11:04.272Z,9.55
2022-09-24T22:13:32.033Z,10.75
2022-09-24T22:15:59.878Z,7.32
2022-09-24T22:18:27.916Z,7.35
2022-09-24T22:20:55.551Z,9.30
2022-09-24T22:23:22.412Z,6.20
2022-09-24T22:25:58.862Z,11.38
2022-09-24T22:28:28.819Z,10.90
2022-09-24T22:31:03.059Z,9.75
2022-09-24T22:33:49.049Z,6.13
2022-09-24T22:36:16.011Z,8.60
2022-09-24T22:38:42.586Z,13.15
2022-09-24T22:41:10.948Z,7.13
2022-09-24T22:43:38.100Z,7.47
2022-09-24T22:46:10.212Z,10.30
2022-09-24T22:48:37.185Z,6.15
2022-09-24T22:51:05.257Z,6.60
2022-09-24T22:53:36.776Z,9.35
2022-09-24T22:56:15.763Z,8.13
2022-09-24T22:58:44.898Z,7.38
2022-09-24T23:01:17.111Z,10.18
2022-09-24T23:03:44.760Z,5.78
2022-09-24T23:06:11.921Z,5.88
2022-09-24T23:08:40.622Z,7.32
2022-09-24T23:11:19.215Z,7.50
2022-09-24T23:13:50.369Z,7.50
2022-09-24T23:16:19.450Z,7.05
2022-09-24T23:18:48.173Z,6.35
2022-09-24T23:21:16.899Z,6.80
2022-09-24T23:23:44.344Z,9.75
2022-09-24T23:26:17.201Z,5.30
2022-09-24T23:28:48.177Z,7.22
2022-09-24T23:31:14.857Z,6.22
2022-09-24T23:33:42.485Z,9.18
2022-09-24T23:36:11.736Z,8.40
2022-09-24T23:38:39.282Z,5.93
2022-09-24T23:41:08.412Z,7.55
2022-09-24T23:43:35.916Z,7.22
2022-09-24T23:46:02.887Z,6.22
2022-09-24T23:48:29.610Z,7.20
2022-09-24T23:50:58.245Z,6.05
2022-09-24T23:53:25.960Z,8.20
2022-09-24T23:55:53.979Z,7.35
2022-09-24T23:58:22.651Z,7.65
